Terminal Aerodrome Forecast
Issued by NWS

Home | Current Version | Previous Version | Text Only | Print | Product List | Glossary On
Versions: 1 2 3 4 5 6 7 8 9 10 11 12 13 14 15 16 17 18 19 20 21 22 23 24 25 26 27 28 29 30 31 32 33 34 35 36 37 38 39 40 41 42 43 44 45 46 47 48 49 50
000
FTUS41 KRNK 212323
TAFLWB
TAF
KLWB 212323Z 2200/2224 30008G18KT P6SM VCSH SCT020 OVC050
      TEMPO 2200/2204 -SHRA OVC020
     FM220400 30008G18KT P6SM VCSH SCT012 OVC020
     FM220900 31006KT P6SM OVC012
     FM221300 31008G15KT P6SM SCT012 OVC025
     FM222100 31006KT P6SM SCT025 OVC040=

USA.gov is the U.S. government's official web portal to all federal, state and local government web resources and services.